sensor_id;sensor_type;location;lat;lon;timestamp;temperature;humidity
11615;DHT22;5863;52.832;4.758;2024-03-08T00:00:59;4.90;99.90
11615;DHT22;5863;52.832;4.758;2024-03-08T00:03:26;4.90;99.90
11615;DHT22;5863;52.832;4.758;2024-03-08T00:05:54;4.90;99.90
11615;DHT22;5863;52.832;4.758;2024-03-08T00:08:22;4.90;99.90
11615;DHT22;5863;52.832;4.758;2024-03-08T00:10:50;4.80;99.90
11615;DHT22;5863;52.832;4.758;2024-03-08T00:13:17;4.80;99.90
11615;DHT22;5863;52.832;4.758;2024-03-08T00:15:44;4.90;99.90
11615;DHT22;5863;52.832;4.758;2024-03-08T00:18:11;4.90;99.90
11615;DHT22;5863;52.832;4.758;2024-03-08T00:20:38;4.90;99.90
11615;DHT22;5863;52.832;4.758;2024-03-08T00:23:05;4.90;99.90
11615;DHT22;5863;52.832;4.758;2024-03-08T00:25:33;4.80;99.90
11615;DHT22;5863;52.832;4.758;2024-03-08T00:28:01;4.80;99.90
11615;DHT22;5863;52.832;4.758;2024-03-08T00:30:30;4.80;99.90
11615;DHT22;5863;52.832;4.758;2024-03-08T00:32:57;4.80;99.90
11615;DHT22;5863;52.832;4.758;2024-03-08T00:35:25;4.80;99.90
11615;DHT22;5863;52.832;4.758;2024-03-08T00:37:52;4.80;99.90
11615;DHT22;5863;52.832;4.758;2024-03-08T00:40:22;4.80;99.90
11615;DHT22;5863;52.832;4.758;2024-03-08T00:42:51;4.80;99.90
11615;DHT22;5863;52.832;4.758;2024-03-08T00:45:19;4.80;99.90
11615;DHT22;5863;52.832;4.758;2024-03-08T00:47:47;4.80;99.90
11615;DHT22;5863;52.832;4.758;2024-03-08T00:50:14;4.80;99.90
11615;DHT22;5863;52.832;4.758;2024-03-08T00:52:41;4.70;99.90
11615;DHT22;5863;52.832;4.758;2024-03-08T00:55:08;4.70;99.90
11615;DHT22;5863;52.832;4.758;2024-03-08T00:57:36;4.70;99.90
11615;DHT22;5863;52.832;4.758;2024-03-08T01:00:06;4.60;99.90
11615;DHT22;5863;52.832;4.758;2024-03-08T01:02:37;4.60;99.90
11615;DHT22;5863;52.832;4.758;2024-03-08T01:05:05;4.60;99.90
11615;DHT22;5863;52.832;4.758;2024-03-08T01:07:33;4.60;99.90
11615;DHT22;5863;52.832;4.758;2024-03-08T01:10:00;4.60;99.90
11615;DHT22;5863;52.832;4.758;2024-03-08T01:12:27;4.50;99.90
11615;DHT22;5863;52.832;4.758;2024-03-08T01:14:54;4.50;99.90
11615;DHT22;5863;52.832;4.758;2024-03-08T01:17:23;4.50;99.90
11615;DHT22;5863;52.832;4.758;2024-03-08T01:19:50;4.50;99.90
11615;DHT22;5863;52.832;4.758;2024-03-08T01:22:17;4.50;99.90
11615;DHT22;5863;52.832;4.758;2024-03-08T01:24:44;4.40;99.90
11615;DHT22;5863;52.832;4.758;2024-03-08T01:27:11;4.50;99.90
11615;DHT22;5863;52.832;4.758;2024-03-08T01:29:38;4.40;99.90
11615;DHT22;5863;52.832;4.758;2024-03-08T01:32:05;4.40;99.90
11615;DHT22;5863;52.832;4.758;2024-03-08T01:34:34;4.40;99.90
11615;DHT22;5863;52.832;4.758;2024-03-08T01:37:01;4.40;99.90
11615;DHT22;5863;52.832;4.758;2024-03-08T01:39:27;4.40;99.90
11615;DHT22;5863;52.832;4.758;2024-03-08T01:41:54;4.30;99.90
11615;DHT22;5863;52.832;4.758;2024-03-08T01:44:21;4.30;99.90
11615;DHT22;5863;52.832;4.758;2024-03-08T01:46:49;4.30;99.90
11615;DHT22;5863;52.832;4.758;2024-03-08T01:49:18;4.30;99.90
11615;DHT22;5863;52.832;4.758;2024-03-08T01:51:48;4.30;99.90
11615;DHT22;5863;52.832;4.758;2024-03-08T01:54:17;4.20;99.90
11615;DHT22;5863;52.832;4.758;2024-03-08T01:56:45;4.20;99.90
11615;DHT22;5863;52.832;4.758;2024-03-08T01:59:13;4.30;99.90
11615;DHT22;5863;52.832;4.758;2024-03-08T02:01:40;4.30;99.90
11615;DHT22;5863;52.832;4.758;2024-03-08T02:04:07;4.30;99.90
11615;DHT22;5863;52.832;4.758;2024-03-08T02:06:34;4.30;99.90
11615;DHT22;5863;52.832;4.758;2024-03-08T02:09:04;4.30;99.90
11615;DHT22;5863;52.832;4.758;2024-03-08T02:11:33;4.30;99.90
11615;DHT22;5863;52.832;4.758;2024-03-08T02:14:01;4.20;99.90
11615;DHT22;5863;52.832;4.758;2024-03-08T02:16:28;4.20;99.90
11615;DHT22;5863;52.832;4.758;2024-03-08T02:18:55;4.20;99.90
11615;DHT22;5863;52.832;4.758;2024-03-08T02:21:23;4.30;99.90
11615;DHT22;5863;52.832;4.758;2024-03-08T02:23:50;4.20;99.90
11615;DHT22;5863;52.832;4.758;2024-03-08T02:26:17;4.30;99.90
11615;DHT22;5863;52.832;4.758;2024-03-08T02:28:45;4.30;99.90
11615;DHT22;5863;52.832;4.758;2024-03-08T02:31:12;4.30;99.90
11615;DHT22;5863;52.832;4.758;2024-03-08T02:33:39;4.20;99.90
11615;DHT22;5863;52.832;4.758;2024-03-08T02:36:06;4.20;99.90
11615;DHT22;5863;52.832;4.758;2024-03-08T02:38:35;4.20;99.90
11615;DHT22;5863;52.832;4.758;2024-03-08T02:41:02;4.20;99.90
11615;DHT22;5863;52.832;4.758;2024-03-08T02:43:29;4.20;99.90
11615;DHT22;5863;52.832;4.758;2024-03-08T02:45:56;4.20;99.90
11615;DHT22;5863;52.832;4.758;2024-03-08T02:48:23;4.20;99.90
11615;DHT22;5863;52.832;4.758;2024-03-08T02:50:50;4.20;99.90
11615;DHT22;5863;52.832;4.758;2024-03-08T02:53:17;4.10;99.90
11615;DHT22;5863;52.832;4.758;2024-03-08T02:55:46;4.20;99.90
11615;DHT22;5863;52.832;4.758;2024-03-08T02:58:13;4.20;99.90
11615;DHT22;5863;52.832;4.758;2024-03-08T03:00:40;4.20;99.90
11615;DHT22;5863;52.832;4.758;2024-03-08T03:03:09;4.10;99.90
11615;DHT22;5863;52.832;4.758;2024-03-08T03:05:36;4.10;99.90
11615;DHT22;5863;52.832;4.758;2024-03-08T03:08:04;4.20;99.90
11615;DHT22;5863;52.832;4.758;2024-03-08T03:10:34;4.10;99.90
11615;DHT22;5863;52.832;4.758;2024-03-08T03:13:03;4.10;99.90
11615;DHT22;5863;52.832;4.758;2024-03-08T03:15:30;4.10;99.90
11615;DHT22;5863;52.832;4.758;2024-03-08T03:17:57;4.00;99.90
11615;DHT22;5863;52.832;4.758;2024-03-08T03:20:24;4.10;99.90
11615;DHT22;5863;52.832;4.758;2024-03-08T03:22:52;4.10;99.90
11615;DHT22;5863;52.832;4.758;2024-03-08T03:25:19;4.10;99.90
11615;DHT22;5863;52.832;4.758;2024-03-08T03:27:51;4.00;99.90
11615;DHT22;5863;52.832;4.758;2024-03-08T03:30:19;4.10;99.90
11615;DHT22;5863;52.832;4.758;2024-03-08T03:32:47;4.00;99.90
11615;DHT22;5863;52.832;4.758;2024-03-08T03:35:16;4.00;99.90
11615;DHT22;5863;52.832;4.758;2024-03-08T03:37:43;4.00;99.90
11615;DHT22;5863;52.832;4.758;2024-03-08T03:40:16;3.90;99.90
11615;DHT22;5863;52.832;4.758;2024-03-08T03:42:45;3.90;99.90
11615;DHT22;5863;52.832;4.758;2024-03-08T03:45:12;4.00;99.90
11615;DHT22;5863;52.832;4.758;2024-03-08T03:47:42;4.00;99.90
11615;DHT22;5863;52.832;4.758;2024-03-08T03:50:09;3.90;99.90
11615;DHT22;5863;52.832;4.758;2024-03-08T03:52:36;3.90;99.90
11615;DHT22;5863;52.832;4.758;2024-03-08T03:55:04;3.90;99.90
11615;DHT22;5863;52.832;4.758;2024-03-08T03:57:31;3.90;99.90
11615;DHT22;5863;52.832;4.758;2024-03-08T03:59:58;3.90;99.90
11615;DHT22;5863;52.832;4.758;2024-03-08T04:02:28;3.90;99.90
11615;DHT22;5863;52.832;4.758;2024-03-08T04:04:56;3.90;99.90
11615;DHT22;5863;52.832;4.758;2024-03-08T04:07:24;4.00;99.90
11615;DHT22;5863;52.832;4.758;2024-03-08T04:09:51;3.90;99.90
11615;DHT22;5863;52.832;4.758;2024-03-08T04:12:18;3.90;99.90
11615;DHT22;5863;52.832;4.758;2024-03-08T04:14:45;3.90;99.90
11615;DHT22;5863;52.832;4.758;2024-03-08T04:17:11;4.00;99.90
11615;DHT22;5863;52.832;4.758;2024-03-08T04:19:39;3.90;99.90
11615;DHT22;5863;52.832;4.758;2024-03-08T04:22:07;3.90;99.90
11615;DHT22;5863;52.832;4.758;2024-03-08T04:24:34;3.80;99.90
11615;DHT22;5863;52.832;4.758;2024-03-08T04:27:01;3.80;99.90
11615;DHT22;5863;52.832;4.758;2024-03-08T04:29:28;3.80;99.90
11615;DHT22;5863;52.832;4.758;2024-03-08T04:31:54;3.80;99.90
11615;DHT22;5863;52.832;4.758;2024-03-08T04:34:21;3.90;99.90
11615;DHT22;5863;52.832;4.758;2024-03-08T04:36:48;3.90;99.90
11615;DHT22;5863;52.832;4.758;2024-03-08T04:39:16;3.90;99.90
11615;DHT22;5863;52.832;4.758;2024-03-08T04:41:44;3.90;99.90
11615;DHT22;5863;52.832;4.758;2024-03-08T04:44:13;3.90;99.90
11615;DHT22;5863;52.832;4.758;2024-03-08T04:46:40;3.90;99.90
11615;DHT22;5863;52.832;4.758;2024-03-08T04:49:07;3.80;99.90
11615;DHT22;5863;52.832;4.758;2024-03-08T04:51:34;3.90;99.90
11615;DHT22;5863;52.832;4.758;2024-03-08T04:54:01;3.80;99.90
11615;DHT22;5863;52.832;4.758;2024-03-08T04:56:29;3.80;99.90
11615;DHT22;5863;52.832;4.758;2024-03-08T04:58:56;3.80;99.90
11615;DHT22;5863;52.832;4.758;2024-03-08T05:01:23;3.80;99.90
11615;DHT22;5863;52.832;4.758;2024-03-08T05:03:50;3.80;99.90
11615;DHT22;5863;52.832;4.758;2024-03-08T05:06:19;3.80;99.90
11615;DHT22;5863;52.832;4.758;2024-03-08T05:08:46;3.80;99.90
11615;DHT22;5863;52.832;4.758;2024-03-08T05:11:13;3.80;99.90
11615;DHT22;5863;52.832;4.758;2024-03-08T05:13:42;3.70;99.90
11615;DHT22;5863;52.832;4.758;2024-03-08T05:16:09;3.70;99.90
11615;DHT22;5863;52.832;4.758;2024-03-08T05:18:36;3.70;99.90
11615;DHT22;5863;52.832;4.758;2024-03-08T05:21:03;3.80;99.90
11615;DHT22;5863;52.832;4.758;2024-03-08T05:23:29;3.70;99.90
11615;DHT22;5863;52.832;4.758;2024-03-08T05:25:56;3.70;99.90
11615;DHT22;5863;52.832;4.758;2024-03-08T05:28:23;3.80;99.90
11615;DHT22;5863;52.832;4.758;2024-03-08T05:30:51;3.70;99.90
11615;DHT22;5863;52.832;4.758;2024-03-08T05:33:18;3.70;99.90
11615;DHT22;5863;52.832;4.758;2024-03-08T05:35:45;3.70;99.90
11615;DHT22;5863;52.832;4.758;2024-03-08T05:38:12;3.70;99.90
11615;DHT22;5863;52.832;4.758;2024-03-08T05:40:39;3.70;99.90
11615;DHT22;5863;52.832;4.758;2024-03-08T05:43:08;3.70;99.90
11615;DHT22;5863;52.832;4.758;2024-03-08T05:45:37;3.60;99.90
11615;DHT22;5863;52.832;4.758;2024-03-08T05:48:06;3.60;99.90
11615;DHT22;5863;52.832;4.758;2024-03-08T05:50:33;3.60;99.90
11615;DHT22;5863;52.832;4.758;2024-03-08T05:53:00;3.60;99.90
11615;DHT22;5863;52.832;4.758;2024-03-08T05:55:27;3.60;99.90
11615;DHT22;5863;52.832;4.758;2024-03-08T05:57:55;3.60;99.90
11615;DHT22;5863;52.832;4.758;2024-03-08T06:00:22;3.60;99.90
11615;DHT22;5863;52.832;4.758;2024-03-08T06:02:49;3.60;99.90
11615;DHT22;5863;52.832;4.758;2024-03-08T06:05:19;3.50;99.90
11615;DHT22;5863;52.832;4.758;2024-03-08T06:07:45;3.50;99.90
11615;DHT22;5863;52.832;4.758;2024-03-08T06:10:13;3.50;99.90
11615;DHT22;5863;52.832;4.758;2024-03-08T06:12:40;3.50;99.90
11615;DHT22;5863;52.832;4.758;2024-03-08T06:15:08;3.60;99.90
11615;DHT22;5863;52.832;4.758;2024-03-08T06:17:39;3.60;99.90
11615;DHT22;5863;52.832;4.758;2024-03-08T06:20:07;3.60;99.90
11615;DHT22;5863;52.832;4.758;2024-03-08T06:22:40;3.60;99.90
11615;DHT22;5863;52.832;4.758;2024-03-08T06:25:07;3.70;99.90
11615;DHT22;5863;52.832;4.758;2024-03-08T06:27:35;3.70;99.90
11615;DHT22;5863;52.832;4.758;2024-03-08T06:30:03;3.70;99.90
11615;DHT22;5863;52.832;4.758;2024-03-08T06:32:30;3.70;99.90
11615;DHT22;5863;52.832;4.758;2024-03-08T06:35:01;3.70;99.90
11615;DHT22;5863;52.832;4.758;2024-03-08T06:37:28;3.70;99.90
11615;DHT22;5863;52.832;4.758;2024-03-08T06:39:56;3.70;99.90
11615;DHT22;5863;52.832;4.758;2024-03-08T06:42:23;3.80;99.90
11615;DHT22;5863;52.832;4.758;2024-03-08T06:44:51;3.80;99.90
11615;DHT22;5863;52.832;4.758;2024-03-08T06:47:20;3.90;99.90
11615;DHT22;5863;52.832;4.758;2024-03-08T06:49:49;3.90;99.90
11615;DHT22;5863;52.832;4.758;2024-03-08T06:52:17;3.90;99.90
11615;DHT22;5863;52.832;4.758;2024-03-08T06:54:44;4.00;99.90
11615;DHT22;5863;52.832;4.758;2024-03-08T06:57:12;4.00;99.90
11615;DHT22;5863;52.832;4.758;2024-03-08T06:59:39;4.00;99.90
11615;DHT22;5863;52.832;4.758;2024-03-08T07:02:06;4.10;99.90
11615;DHT22;5863;52.832;4.758;2024-03-08T07:04:35;4.20;99.90
11615;DHT22;5863;52.832;4.758;2024-03-08T07:07:03;4.30;99.90
11615;DHT22;5863;52.832;4.758;2024-03-08T07:09:31;4.40;99.90
11615;DHT22;5863;52.832;4.758;2024-03-08T07:11:58;4.50;99.90
11615;DHT22;5863;52.832;4.758;2024-03-08T07:14:26;4.60;99.90
11615;DHT22;5863;52.832;4.758;2024-03-08T07:16:53;4.70;99.90
11615;DHT22;5863;52.832;4.758;2024-03-08T07:19:20;4.70;99.90
11615;DHT22;5863;52.832;4.758;2024-03-08T07:21:47;4.80;99.90
11615;DHT22;5863;52.832;4.758;2024-03-08T07:24:14;5.00;99.90
11615;DHT22;5863;52.832;4.758;2024-03-08T07:26:58;5.00;99.90
11615;DHT22;5863;52.832;4.758;2024-03-08T07:29:26;5.10;99.90
11615;DHT22;5863;52.832;4.758;2024-03-08T07:31:54;5.10;99.90
11615;DHT22;5863;52.832;4.758;2024-03-08T07:34:33;5.10;99.90
11615;DHT22;5863;52.832;4.758;2024-03-08T07:37:00;5.20;99.90
11615;DHT22;5863;52.832;4.758;2024-03-08T07:39:28;5.20;99.90
11615;DHT22;5863;52.832;4.758;2024-03-08T07:41:54;5.30;99.90
11615;DHT22;5863;52.832;4.758;2024-03-08T07:44:21;5.30;99.90
11615;DHT22;5863;52.832;4.758;2024-03-08T07:46:50;5.50;99.90
11615;DHT22;5863;52.832;4.758;2024-03-08T07:49:17;5.80;99.90
11615;DHT22;5863;52.832;4.758;2024-03-08T07:51:44;5.90;99.90
11615;DHT22;5863;52.832;4.758;2024-03-08T07:54:11;6.00;99.90
11615;DHT22;5863;52.832;4.758;2024-03-08T07:56:38;6.00;99.90
11615;DHT22;5863;52.832;4.758;2024-03-08T07:59:05;6.10;99.90
11615;DHT22;5863;52.832;4.758;2024-03-08T08:01:33;6.10;99.90
11615;DHT22;5863;52.832;4.758;2024-03-08T08:04:01;6.00;99.90
11615;DHT22;5863;52.832;4.758;2024-03-08T08:06:28;6.00;99.90
11615;DHT22;5863;52.832;4.758;2024-03-08T08:08:57;5.90;99.90
11615;DHT22;5863;52.832;4.758;2024-03-08T08:11:26;5.90;99.90
11615;DHT22;5863;52.832;4.758;2024-03-08T08:13:53;5.70;99.90
11615;DHT22;5863;52.832;4.758;2024-03-08T08:16:22;5.70;99.90
11615;DHT22;5863;52.832;4.758;2024-03-08T08:18:51;5.70;99.90
11615;DHT22;5863;52.832;4.758;2024-03-08T08:21:20;5.70;99.90
11615;DHT22;5863;52.832;4.758;2024-03-08T08:23:47;6.00;99.90
11615;DHT22;5863;52.832;4.758;2024-03-08T08:26:14;6.10;99.90
11615;DHT22;5863;52.832;4.758;2024-03-08T08:28:41;6.20;99.90
11615;DHT22;5863;52.832;4.758;2024-03-08T08:31:08;6.40;99.90
11615;DHT22;5863;52.832;4.758;2024-03-08T08:33:35;6.40;99.90
11615;DHT22;5863;52.832;4.758;2024-03-08T08:36:03;6.50;99.90
11615;DHT22;5863;52.832;4.758;2024-03-08T08:38:31;6.40;99.90
11615;DHT22;5863;52.832;4.758;2024-03-08T08:40:58;6.40;99.90
11615;DHT22;5863;52.832;4.758;2024-03-08T08:43:28;6.30;99.90
11615;DHT22;5863;52.832;4.758;2024-03-08T08:45:54;6.30;99.90
11615;DHT22;5863;52.832;4.758;2024-03-08T08:48:22;6.20;99.90
11615;DHT22;5863;52.832;4.758;2024-03-08T08:50:50;6.20;99.90
11615;DHT22;5863;52.832;4.758;2024-03-08T08:53:17;6.10;99.90
11615;DHT22;5863;52.832;4.758;2024-03-08T08:55:46;6.10;99.90
11615;DHT22;5863;52.832;4.758;2024-03-08T08:58:13;6.10;99.90
11615;DHT22;5863;52.832;4.758;2024-03-08T09:00:40;6.10;99.90
11615;DHT22;5863;52.832;4.758;2024-03-08T09:03:09;6.10;99.90
11615;DHT22;5863;52.832;4.758;2024-03-08T09:05:37;6.10;99.90
11615;DHT22;5863;52.832;4.758;2024-03-08T09:08:05;6.10;99.90
11615;DHT22;5863;52.832;4.758;2024-03-08T09:10:33;6.20;99.90
11615;DHT22;5863;52.832;4.758;2024-03-08T09:13:01;6.20;99.90
11615;DHT22;5863;52.832;4.758;2024-03-08T09:15:29;6.20;99.90
11615;DHT22;5863;52.832;4.758;2024-03-08T09:17:56;6.10;99.90
11615;DHT22;5863;52.832;4.758;2024-03-08T09:20:24;6.30;99.90
11615;DHT22;5863;52.832;4.758;2024-03-08T09:22:52;6.30;99.90
11615;DHT22;5863;52.832;4.758;2024-03-08T09:25:20;6.40;99.90
11615;DHT22;5863;52.832;4.758;2024-03-08T09:27:47;6.40;99.90
11615;DHT22;5863;52.832;4.758;2024-03-08T09:30:16;6.50;99.90
11615;DHT22;5863;52.832;4.758;2024-03-08T09:32:43;6.60;99.90
11615;DHT22;5863;52.832;4.758;2024-03-08T09:35:10;6.80;99.90
11615;DHT22;5863;52.832;4.758;2024-03-08T09:37:37;6.60;99.90
11615;DHT22;5863;52.832;4.758;2024-03-08T09:40:05;6.60;99.90
11615;DHT22;5863;52.832;4.758;2024-03-08T09:42:35;6.80;99.90
11615;DHT22;5863;52.832;4.758;2024-03-08T09:45:04;6.80;99.90
11615;DHT22;5863;52.832;4.758;2024-03-08T09:47:38;6.90;99.90
11615;DHT22;5863;52.832;4.758;2024-03-08T09:50:07;7.00;99.90
11615;DHT22;5863;52.832;4.758;2024-03-08T09:52:35;7.10;99.90
11615;DHT22;5863;52.832;4.758;2024-03-08T09:55:05;7.20;99.90
11615;DHT22;5863;52.832;4.758;2024-03-08T09:57:33;7.30;99.90
11615;DHT22;5863;52.832;4.758;2024-03-08T10:00:00;7.40;99.90
11615;DHT22;5863;52.832;4.758;2024-03-08T10:02:27;7.50;99.90
11615;DHT22;5863;52.832;4.758;2024-03-08T10:04:57;7.50;99.90
11615;DHT22;5863;52.832;4.758;2024-03-08T10:07:24;7.50;99.90
11615;DHT22;5863;52.832;4.758;2024-03-08T10:09:52;7.60;99.90
11615;DHT22;5863;52.832;4.758;2024-03-08T10:12:19;7.70;99.90
11615;DHT22;5863;52.832;4.758;2024-03-08T10:14:46;7.70;99.90
11615;DHT22;5863;52.832;4.758;2024-03-08T10:17:13;7.60;99.90
11615;DHT22;5863;52.832;4.758;2024-03-08T10:19:49;7.60;99.90
11615;DHT22;5863;52.832;4.758;2024-03-08T10:22:18;7.50;99.90
11615;DHT22;5863;52.832;4.758;2024-03-08T10:24:45;7.60;99.90
11615;DHT22;5863;52.832;4.758;2024-03-08T10:27:12;7.50;99.90
11615;DHT22;5863;52.832;4.758;2024-03-08T10:29:41;7.40;99.90
11615;DHT22;5863;52.832;4.758;2024-03-08T10:32:10;7.60;99.90
11615;DHT22;5863;52.832;4.758;2024-03-08T10:34:37;7.60;99.90
11615;DHT22;5863;52.832;4.758;2024-03-08T10:37:05;7.60;99.90
11615;DHT22;5863;52.832;4.758;2024-03-08T10:39:35;7.60;99.90
11615;DHT22;5863;52.832;4.758;2024-03-08T10:42:03;7.70;99.90
11615;DHT22;5863;52.832;4.758;2024-03-08T10:44:44;7.80;99.90
11615;DHT22;5863;52.832;4.758;2024-03-08T10:47:18;7.70;99.90
11615;DHT22;5863;52.832;4.758;2024-03-08T10:49:51;7.80;99.90
11615;DHT22;5863;52.832;4.758;2024-03-08T10:52:21;7.80;99.90
11615;DHT22;5863;52.832;4.758;2024-03-08T10:54:51;7.90;99.90
11615;DHT22;5863;52.832;4.758;2024-03-08T10:57:19;7.90;99.90
11615;DHT22;5863;52.832;4.758;2024-03-08T10:59:53;7.90;99.90
11615;DHT22;5863;52.832;4.758;2024-03-08T11:02:21;8.10;99.90
11615;DHT22;5863;52.832;4.758;2024-03-08T11:04:49;8.20;99.90
11615;DHT22;5863;52.832;4.758;2024-03-08T11:07:17;8.20;99.90
11615;DHT22;5863;52.832;4.758;2024-03-08T11:09:47;8.30;99.90
11615;DHT22;5863;52.832;4.758;2024-03-08T11:12:23;8.40;99.90
11615;DHT22;5863;52.832;4.758;2024-03-08T11:14:56;8.50;99.90
11615;DHT22;5863;52.832;4.758;2024-03-08T11:17:40;8.40;99.90
11615;DHT22;5863;52.832;4.758;2024-03-08T11:20:10;8.40;99.90
11615;DHT22;5863;52.832;4.758;2024-03-08T11:22:41;8.50;99.90
11615;DHT22;5863;52.832;4.758;2024-03-08T11:25:31;8.60;99.90
11615;DHT22;5863;52.832;4.758;2024-03-08T11:28:12;8.50;99.90
11615;DHT22;5863;52.832;4.758;2024-03-08T11:30:44;8.60;99.90
11615;DHT22;5863;52.832;4.758;2024-03-08T11:33:13;8.50;99.90
11615;DHT22;5863;52.832;4.758;2024-03-08T11:35:40;8.60;99.90
11615;DHT22;5863;52.832;4.758;2024-03-08T11:38:11;8.60;99.90
11615;DHT22;5863;52.832;4.758;2024-03-08T11:40:39;8.70;99.90
11615;DHT22;5863;52.832;4.758;2024-03-08T11:43:09;8.60;99.90
11615;DHT22;5863;52.832;4.758;2024-03-08T11:45:36;8.70;99.90
11615;DHT22;5863;52.832;4.758;2024-03-08T11:48:04;8.70;99.90
11615;DHT22;5863;52.832;4.758;2024-03-08T11:50:31;8.70;99.90
11615;DHT22;5863;52.832;4.758;2024-03-08T11:53:03;8.80;99.90
11615;DHT22;5863;52.832;4.758;2024-03-08T11:55:30;8.80;99.90
11615;DHT22;5863;52.832;4.758;2024-03-08T11:58:02;8.80;99.90
11615;DHT22;5863;52.832;4.758;2024-03-08T12:00:31;8.90;99.90
11615;DHT22;5863;52.832;4.758;2024-03-08T12:03:04;8.90;99.90
11615;DHT22;5863;52.832;4.758;2024-03-08T12:05:32;8.80;99.90
11615;DHT22;5863;52.832;4.758;2024-03-08T12:07:59;8.80;99.90
11615;DHT22;5863;52.832;4.758;2024-03-08T12:10:26;8.90;99.90
11615;DHT22;5863;52.832;4.758;2024-03-08T12:12:55;9.00;99.90
11615;DHT22;5863;52.832;4.758;2024-03-08T12:15:25;8.90;99.90
11615;DHT22;5863;52.832;4.758;2024-03-08T12:17:54;8.80;99.90
11615;DHT22;5863;52.832;4.758;2024-03-08T12:20:23;8.80;99.90
11615;DHT22;5863;52.832;4.758;2024-03-08T12:22:52;8.90;99.90
11615;DHT22;5863;52.832;4.758;2024-03-08T12:25:20;8.80;99.90
11615;DHT22;5863;52.832;4.758;2024-03-08T12:27:47;8.90;99.90
11615;DHT22;5863;52.832;4.758;2024-03-08T12:30:21;8.80;99.90
11615;DHT22;5863;52.832;4.758;2024-03-08T12:32:55;8.90;99.90
11615;DHT22;5863;52.832;4.758;2024-03-08T12:35:24;9.10;99.90
11615;DHT22;5863;52.832;4.758;2024-03-08T12:37:52;9.30;99.90
11615;DHT22;5863;52.832;4.758;2024-03-08T12:40:25;9.30;99.90
11615;DHT22;5863;52.832;4.758;2024-03-08T12:42:52;9.20;99.90
11615;DHT22;5863;52.832;4.758;2024-03-08T12:45:19;9.30;99.90
11615;DHT22;5863;52.832;4.758;2024-03-08T12:47:47;9.40;99.90
11615;DHT22;5863;52.832;4.758;2024-03-08T12:50:16;9.40;99.90
11615;DHT22;5863;52.832;4.758;2024-03-08T12:52:43;9.40;99.90
11615;DHT22;5863;52.832;4.758;2024-03-08T12:55:10;9.20;99.90
11615;DHT22;5863;52.832;4.758;2024-03-08T12:57:38;9.20;99.90
11615;DHT22;5863;52.832;4.758;2024-03-08T13:00:05;9.30;99.90
11615;DHT22;5863;52.832;4.758;2024-03-08T13:02:38;9.10;99.90
11615;DHT22;5863;52.832;4.758;2024-03-08T13:05:06;9.10;99.90
11615;DHT22;5863;52.832;4.758;2024-03-08T13:07:37;9.20;99.90
11615;DHT22;5863;52.832;4.758;2024-03-08T13:10:05;9.30;99.90
11615;DHT22;5863;52.832;4.758;2024-03-08T13:12:32;9.50;99.90
11615;DHT22;5863;52.832;4.758;2024-03-08T13:15:02;9.60;99.90
11615;DHT22;5863;52.832;4.758;2024-03-08T13:17:30;9.70;99.90
11615;DHT22;5863;52.832;4.758;2024-03-08T13:19:57;9.60;99.90
11615;DHT22;5863;52.832;4.758;2024-03-08T13:22:24;9.40;99.90
11615;DHT22;5863;52.832;4.758;2024-03-08T13:24:52;9.50;99.90
11615;DHT22;5863;52.832;4.758;2024-03-08T13:27:19;9.50;99.90
11615;DHT22;5863;52.832;4.758;2024-03-08T13:29:48;9.60;99.90
11615;DHT22;5863;52.832;4.758;2024-03-08T13:32:15;9.60;99.90
11615;DHT22;5863;52.832;4.758;2024-03-08T13:34:42;9.60;99.90
11615;DHT22;5863;52.832;4.758;2024-03-08T13:37:10;9.70;99.90
11615;DHT22;5863;52.832;4.758;2024-03-08T13:39:37;9.80;99.90
11615;DHT22;5863;52.832;4.758;2024-03-08T13:42:10;9.90;99.90
11615;DHT22;5863;52.832;4.758;2024-03-08T13:44:39;9.90;99.90
11615;DHT22;5863;52.832;4.758;2024-03-08T13:47:09;9.90;99.90
11615;DHT22;5863;52.832;4.758;2024-03-08T13:49:37;9.80;99.90
11615;DHT22;5863;52.832;4.758;2024-03-08T13:52:05;9.90;99.90
11615;DHT22;5863;52.832;4.758;2024-03-08T13:54:34;9.80;99.90
11615;DHT22;5863;52.832;4.758;2024-03-08T13:57:01;9.80;99.90
11615;DHT22;5863;52.832;4.758;2024-03-08T13:59:30;9.80;99.90
11615;DHT22;5863;52.832;4.758;2024-03-08T14:01:58;9.80;99.90
11615;DHT22;5863;52.832;4.758;2024-03-08T14:04:27;9.80;99.90
11615;DHT22;5863;52.832;4.758;2024-03-08T14:06:54;9.80;99.90
11615;DHT22;5863;52.832;4.758;2024-03-08T14:09:24;9.90;99.90
11615;DHT22;5863;52.832;4.758;2024-03-08T14:11:52;9.90;99.90
11615;DHT22;5863;52.832;4.758;2024-03-08T14:17:07;10.00;99.90
11615;DHT22;5863;52.832;4.758;2024-03-08T14:19:37;9.90;99.90
11615;DHT22;5863;52.832;4.758;2024-03-08T14:22:07;9.80;99.90
11615;DHT22;5863;52.832;4.758;2024-03-08T14:24:38;9.70;99.90
11615;DHT22;5863;52.832;4.758;2024-03-08T14:27:05;9.70;99.90
11615;DHT22;5863;52.832;4.758;2024-03-08T14:29:38;9.80;99.90
11615;DHT22;5863;52.832;4.758;2024-03-08T14:32:10;9.90;99.90
11615;DHT22;5863;52.832;4.758;2024-03-08T14:34:38;9.90;99.90
11615;DHT22;5863;52.832;4.758;2024-03-08T14:37:05;9.80;99.90
11615;DHT22;5863;52.832;4.758;2024-03-08T14:39:37;9.80;99.90
11615;DHT22;5863;52.832;4.758;2024-03-08T14:42:04;9.90;99.90
11615;DHT22;5863;52.832;4.758;2024-03-08T14:44:33;9.80;99.90
11615;DHT22;5863;52.832;4.758;2024-03-08T14:47:01;9.80;99.90
11615;DHT22;5863;52.832;4.758;2024-03-08T14:49:32;9.70;99.90
11615;DHT22;5863;52.832;4.758;2024-03-08T14:51:59;9.60;99.90
11615;DHT22;5863;52.832;4.758;2024-03-08T14:54:26;9.60;99.90
11615;DHT22;5863;52.832;4.758;2024-03-08T14:56:53;9.60;99.90
11615;DHT22;5863;52.832;4.758;2024-03-08T14:59:22;9.60;99.90
11615;DHT22;5863;52.832;4.758;2024-03-08T15:01:51;9.60;99.90
11615;DHT22;5863;52.832;4.758;2024-03-08T15:04:18;9.60;99.90
11615;DHT22;5863;52.832;4.758;2024-03-08T15:06:46;9.60;99.90
11615;DHT22;5863;52.832;4.758;2024-03-08T15:09:13;9.50;99.90
11615;DHT22;5863;52.832;4.758;2024-03-08T15:11:45;9.40;99.90
11615;DHT22;5863;52.832;4.758;2024-03-08T15:14:12;9.40;99.90
11615;DHT22;5863;52.832;4.758;2024-03-08T15:16:39;9.40;99.90
11615;DHT22;5863;52.832;4.758;2024-03-08T15:19:07;9.40;99.90
11615;DHT22;5863;52.832;4.758;2024-03-08T15:21:34;9.40;99.90
11615;DHT22;5863;52.832;4.758;2024-03-08T15:24:03;9.40;99.90
11615;DHT22;5863;52.832;4.758;2024-03-08T15:26:35;9.30;99.90
11615;DHT22;5863;52.832;4.758;2024-03-08T15:29:02;9.30;99.90
11615;DHT22;5863;52.832;4.758;2024-03-08T15:31:30;9.30;99.90
11615;DHT22;5863;52.832;4.758;2024-03-08T15:33:58;9.40;99.90
11615;DHT22;5863;52.832;4.758;2024-03-08T15:36:30;9.40;99.90
11615;DHT22;5863;52.832;4.758;2024-03-08T15:38:58;9.30;99.90
11615;DHT22;5863;52.832;4.758;2024-03-08T15:41:27;9.20;99.90
11615;DHT22;5863;52.832;4.758;2024-03-08T15:43:55;9.30;99.90
11615;DHT22;5863;52.832;4.758;2024-03-08T15:46:22;9.20;99.90
11615;DHT22;5863;52.832;4.758;2024-03-08T15:48:50;9.20;99.90
11615;DHT22;5863;52.832;4.758;2024-03-08T15:51:18;9.20;99.90
11615;DHT22;5863;52.832;4.758;2024-03-08T15:53:45;9.10;99.90
11615;DHT22;5863;52.832;4.758;2024-03-08T15:56:18;9.10;99.90
11615;DHT22;5863;52.832;4.758;2024-03-08T15:58:47;9.10;99.90
11615;DHT22;5863;52.832;4.758;2024-03-08T16:01:13;9.10;99.90
11615;DHT22;5863;52.832;4.758;2024-03-08T16:03:42;9.00;99.90
11615;DHT22;5863;52.832;4.758;2024-03-08T16:06:10;9.00;99.90
11615;DHT22;5863;52.832;4.758;2024-03-08T16:08:37;9.00;99.90
11615;DHT22;5863;52.832;4.758;2024-03-08T16:11:06;9.00;99.90